チューリヒ国際空港の過去48時間の天気

チューリヒ国際空港 (Zurich-Kloten)

現在時刻: 2/25 09:49 CET (2/25 08:49 UTC) 以下の時間は現地時間です。

過去48時間のMETAR気象情報
時間 風向 風速(m/s) 視程 気温(℃) 湿度(%) 気圧(hPa) 天気現象
25 09:20 西北西 3 10km以上 9 57 1009
25 08:50 西 2 10km以上 8 61 1009
25 08:20 西北西 3 10km以上 6 70 1009
25 07:50 西 3 10km以上 6 65 1010
25 07:20 西北西 3 10km以上 6 65 1010
25 06:50 西南西 2 10km以上 4 81 1010
25 06:20 不定 1 10km以上 6 76 1010
25 05:50 不定 1 10km以上 7 70 1010
25 05:20 2 10km以上 7 70 1010
25 04:50 不定 1 10km以上 7 70 1010
25 04:20 不定 2 10km以上 9 66 1010
25 03:50 不定 2 10km以上 9 66 1010
25 03:20 南東 2 10km以上 7 70 1010
25 02:50 不定 2 10km以上 8 66 1011
25 02:20 不定 1 10km以上 8 66 1011
25 01:50 不定 1 10km以上 9 62 1012
25 00:50 南西 4 10km以上 11 54 1012
25 00:20 南西 4 10km以上 11 54 1013
24 23:50 南西 3 10km以上 11 54 1013
24 23:20 西南西 2 10km以上 11 54 1014
24 22:50 西南西 3 10km以上 12 54 1014
24 22:20 南西 3 10km以上 12 54 1015
24 21:50 西南西 3 10km以上 12 54 1015
24 21:20 南西 3 10km以上 12 54 1015
24 20:50 不定 1 10km以上 13 54 1015
24 20:20 不定 1 10km以上 13 58 1015
24 19:50 不定 2 10km以上 13 58 1015
24 19:20 不定 1 10km以上 12 67 1015
24 18:50 不定 1 10km以上 12 71 1015
24 18:20 不定 1 10km以上 13 67 1016
24 17:50 西 2 10km以上 15 59 1016
24 17:20 西北西 2 10km以上 15 63 1016
24 16:50 西北西 5 10km以上 16 59 1016
24 16:20 北西 4 10km以上 16 59 1017
24 15:50 北西 5 10km以上 16 59 1017
24 15:20 西北西 4 10km以上 16 59 1018
24 14:50 西北西 4 10km以上 16 59 1018
24 14:20 西北西 5 10km以上 16 55 1019
24 13:50 西北西 5 10km以上 17 55 1019
24 13:20 西 4 10km以上 17 52 1020
24 12:50 西 4 10km以上 16 55 1021
24 12:20 西 4 10km以上 16 59 1022
24 11:50 西 3 10km以上 14 63 1022
24 11:20 南西 2 10km以上 14 67 1023
24 10:50 西南西 3 10km以上 13 72 1023
24 10:20 南西 5 10km以上 12 77 1023
24 09:50 東南東 2 10km以上 11 82 1024
24 09:20 西 2 10km以上 11 82 1024
24 08:50 西北西 3 10km以上 11 76 1024 弱い霧雨
24 08:20 西北西 2 10km以上 11 76 1024
24 07:50 北西 2 10km以上 10 82 1024
24 07:20 北西 3 10km以上 11 76 1025
24 06:50 北北東 2 10km以上 10 82 1025
24 06:20 西 3 10km以上 11 76 1025
24 05:50 西北西 4 10km以上 11 76 1025
24 05:20 西北西 4 10km以上 11 76 1025
24 04:50 北北西 3 10km以上 10 82 1025
24 04:20 西南西 3 10km以上 11 76 1025
24 03:50 西 5 10km以上 12 71 1026
24 03:20 西北西 4 10km以上 12 67 1026
24 02:50 西 4 10km以上 13 62 1026
24 02:20 西 3 10km以上 13 58 1026
24 01:50 西 6 10km以上 13 58 1026
24 00:50 西南西 4 10km以上 14 51 1025
24 00:20 西南西 4 10km以上 14 51 1025
23 23:50 西南西 4 10km以上 14 51 1025
23 23:20 西 5 10km以上 15 48 1025
23 22:50 西南西 7 10km以上 15 48 1025
23 22:20 西南西 9 10km以上 15 45 1025
23 21:50 西南西 7 10km以上 15 48 1025
23 21:20 西南西 9 10km以上 16 42 1024
23 20:50 西南西 8 10km以上 16 42 1024
23 20:20 西南西 9 10km以上 16 42 1024
23 19:50 西南西 8 10km以上 16 42 1024
23 19:20 西南西 9 10km以上 16 42 1024
23 18:50 西南西 7 10km以上 16 42 1024
23 18:20 西南西 7 10km以上 16 42 1024
23 17:50 西南西 7 10km以上 16 42 1024
23 17:20 南西 6 10km以上 16 39 1024
23 16:50 西南西 7 10km以上 16 39 1024
23 16:20 西南西 6 10km以上 16 39 1024
23 15:50 西南西 7 10km以上 16 45 1024
23 15:20 西南西 6 10km以上 16 45 1024
23 14:50 西 6 10km以上 16 42 1024
23 14:20 西南西 7 10km以上 16 39 1024
23 13:50 西 5 10km以上 16 39 1025
23 13:20 南西 6 10km以上 15 39 1025
23 12:50 西南西 5 10km以上 14 38 1026
23 12:20 西 3 10km以上 13 38 1026
23 11:50 南西 2 10km以上 12 44 1026
23 11:20 西 3 10km以上 11 47 1027
23 10:50 不定 1 10km以上 11 47 1027
23 10:20 不定 1 10km以上 11 40 1028
23 09:50 不定 1 10km以上 10 50 1028
LSZH 250820Z 29006KT 260V320 CAVOK 09/01 Q1009 NOSIG
LSZH 250750Z 27004KT 220V310 CAVOK 08/01 Q1009 NOSIG
LSZH 250720Z 30005KT CAVOK 06/01 Q1009 NOSIG
LSZH 250650Z 28006KT CAVOK 06/00 Q1010 NOSIG
LSZH 250620Z 30006KT CAVOK 06/00 Q1010 NOSIG
LSZH 250550Z 24004KT CAVOK 04/01 Q1010 NOSIG
LSZH 250520Z VRB02KT CAVOK 06/02 Q1010 NOSIG
LSZH 250450Z VRB01KT CAVOK 07/02 Q1010 NOSIG
LSZH 250420Z 18004KT CAVOK 07/02 Q1010 NOSIG
LSZH 250350Z VRB02KT CAVOK 07/02 Q1010 NOSIG
LSZH 250320Z VRB03KT CAVOK 09/03 Q1010 NOSIG
LSZH 250250Z VRB03KT CAVOK 09/03 Q1010 NOSIG
LSZH 250220Z 13004KT 090V200 CAVOK 07/02 Q1010 NOSIG
LSZH 250150Z VRB03KT CAVOK 08/02 Q1011 NOSIG
LSZH 250120Z VRB01KT CAVOK 08/02 Q1011 NOSIG
LSZH 250050Z VRB02KT CAVOK 09/02 Q1012 NOSIG
LSZH 242350Z 22007KT CAVOK 11/02 Q1012 NOSIG
LSZH 242320Z 23008KT CAVOK 11/02 Q1013 NOSIG
LSZH 242250Z 23005KT CAVOK 11/02 Q1013 NOSIG
LSZH 242220Z 24004KT CAVOK 11/02 Q1014 NOSIG
LSZH 242150Z 24006KT CAVOK 12/03 Q1014 NOSIG
LSZH 242120Z 23006KT CAVOK 12/03 Q1015 NOSIG
LSZH 242050Z 24005KT CAVOK 12/03 Q1015 NOSIG
LSZH 242020Z 23006KT CAVOK 12/03 Q1015 NOSIG
LSZH 241950Z VRB02KT CAVOK 13/04 Q1015 NOSIG
LSZH 241920Z VRB02KT CAVOK 13/05 Q1015 NOSIG
LSZH 241850Z VRB03KT CAVOK 13/05 Q1015 NOSIG
LSZH 241820Z VRB02KT CAVOK 12/06 Q1015 NOSIG
LSZH 241750Z VRB02KT CAVOK 12/07 Q1015 NOSIG
LSZH 241720Z VRB02KT CAVOK 13/07 Q1016 NOSIG
LSZH 241650Z 26003KT CAVOK 15/07 Q1016 NOSIG
LSZH 241620Z 30004KT CAVOK 15/08 Q1016 NOSIG
LSZH 241550Z 30009KT CAVOK 16/08 Q1016 NOSIG
LSZH 241520Z 31008KT 9999 FEW045 16/08 Q1017 NOSIG
LSZH 241450Z 31009KT 9999 FEW045 16/08 Q1017 NOSIG
LSZH 241420Z 30008KT 9999 FEW045 16/08 Q1018 NOSIG
LSZH 241350Z 30008KT 9999 FEW042 16/08 Q1018 NOSIG
LSZH 241320Z 30009KT 9999 FEW042 16/07 Q1019 NOSIG
LSZH 241250Z 29009KT 240V330 9999 FEW038 17/08 Q1019 NOSIG
LSZH 241220Z 26007KT 220V310 9999 FEW042 17/07 Q1020 NOSIG
LSZH 241150Z 26007KT 230V290 9999 FEW036 16/07 Q1021 NOSIG
LSZH 241120Z 27007KT 9999 FEW032 16/08 Q1022 NOSIG
LSZH 241050Z 26005KT 230V300 9999 FEW026 14/07 Q1022 NOSIG
LSZH 241020Z 22004KT 120V270 9999 FEW024 14/08 Q1023 NOSIG
LSZH 240950Z 25005KT 210V280 9999 FEW018 BKN022 13/08 Q1023 NOSIG
LSZH 240920Z 23009KT 9999 FEW017 BKN022 12/08 Q1023 NOSIG
LSZH 240850Z 12003KT 090V160 9999 FEW018 SCT022 11/08 Q1024 NOSIG
LSZH 240820Z 28003KT 220V310 9999 FEW018 SCT075 11/08 Q1024 NOSIG
LSZH 240750Z 30005KT 9999 -DZ FEW018 BKN050 11/07 Q1024 NOSIG
LSZH 240720Z 29004KT 260V320 9999 FEW030 BKN055 11/07 Q1024 NOSIG
LSZH 240650Z 31004KT 9999 FEW030 BKN065 10/07 Q1024 NOSIG
LSZH 240620Z 32005KT 9999 FEW020 BKN065 11/07 Q1025 NOSIG
LSZH 240550Z 02003KT 330V050 9999 FEW020 BKN065 10/07 Q1025 NOSIG
LSZH 240520Z 27006KT 9999 FEW020 BKN065 11/07 Q1025 NOSIG
LSZH 240450Z 29008KT 9999 FEW020 BKN060 11/07 Q1025 NOSIG
LSZH 240420Z 30008KT 9999 FEW020 SCT030 BKN060 11/07 Q1025 NOSIG
LSZH 240350Z 34005KT 300V360 9999 SCT030 BKN050 10/07 Q1025 NOSIG
LSZH 240320Z 25005KT 9999 FEW025 SCT032 BKN065 11/07 Q1025 NOSIG
LSZH 240250Z 26009KT 230V290 9999 FEW024 BKN050 12/07 Q1026 NOSIG
LSZH 240220Z 29008KT 9999 BKN030 12/06 Q1026 NOSIG
LSZH 240150Z 28008KT 9999 BKN032 13/06 Q1026 NOSIG
LSZH 240120Z 28005KT 240V310 9999 BKN035 13/05 Q1026 NOSIG
LSZH 240050Z 27011KT 9999 FEW035 BKN042 13/05 Q1026 NOSIG
LSZH 232350Z 24008KT 9999 FEW038 BKN045 14/04 Q1025 NOSIG
LSZH 232320Z 25008KT 9999 FEW040 BKN045 14/04 Q1025 NOSIG
LSZH 232250Z 25008KT 230V290 9999 BKN050 14/04 Q1025 NOSIG
LSZH 232220Z 26010KT 240V310 9999 OVC050 15/04 Q1025 NOSIG
LSZH 232150Z 25014KT 9999 FEW048 BKN055 15/04 Q1025 NOSIG
LSZH 232120Z 25017KT 220V280 9999 FEW046 BKN055 15/03 Q1025 NOSIG
LSZH 232050Z 25014KT 9999 FEW047 BKN055 15/04 Q1025 NOSIG
LSZH 232020Z 24017KT 9999 FEW048 BKN055 16/03 Q1024 NOSIG
LSZH 231950Z 25016G27KT 220V280 9999 FEW048 BKN055 16/03 Q1024 NOSIG
LSZH 231920Z 25018G28KT 220V290 9999 FEW048 BKN055 16/03 Q1024 NOSIG
LSZH 231850Z 25016KT 9999 BKN055 16/03 Q1024 NOSIG
LSZH 231820Z 24018G28KT 9999 BKN055 16/03 Q1024 NOSIG
LSZH 231750Z 24014KT 9999 FEW060 16/03 Q1024 NOSIG
LSZH 231720Z 24014KT 9999 FEW055 16/03 Q1024 NOSIG
LSZH 231650Z 24014KT 210V280 9999 FEW055 16/03 Q1024 NOSIG
LSZH 231620Z 23012KT 200V280 9999 FEW055 SCT070 16/02 Q1024 NOSIG
LSZH 231550Z 24013KT 210V270 9999 BKN055 16/02 Q1024 NOSIG
LSZH 231520Z 24012KT 9999 SCT050 16/02 Q1024 NOSIG
LSZH 231450Z 25013KT 9999 FEW047 SCT052 16/04 Q1024 NOSIG
LSZH 231420Z 25012KT 9999 FEW050 16/04 Q1024 NOSIG
LSZH 231350Z 26012KT 9999 FEW055 16/03 Q1024 NOSIG
LSZH 231320Z 25013KT 210V300 9999 SCT055 16/02 Q1024 NOSIG
LSZH 231250Z 26009KT 230V290 9999 FEW055 BKN060 16/02 Q1025 NOSIG
LSZH 231220Z 23011KT 9999 FEW055 SCT060 15/01 Q1025 NOSIG
LSZH 231150Z 24009KT 210V280 9999 FEW055 BKN060 14/00 Q1026 NOSIG
LSZH 231120Z 26006KT 220V300 9999 SCT055 BKN060 13/M01 Q1026 BECMG 23012G25KT
LSZH 231050Z 22004KT 190V260 9999 SCT050 BKN055 12/M00 Q1026 BECMG 23012G25KT
LSZH 231020Z 26005KT 230V300 9999 SCT042 BKN055 11/M00 Q1027 NOSIG
LSZH 230950Z VRB02KT 9999 SCT040 BKN046 11/M00 Q1027 NOSIG
LSZH 230920Z VRB02KT 9999 SCT042 BKN060 11/M02 Q1028 NOSIG
LSZH 230850Z VRB01KT 9999 FEW042 BKN053 10/M00 Q1028 NOSIG